Time;durP1;ratioP1;P1;durP2;ratioP2;P2;SDS_P1;SDS_P2;PMS_P1;PMS_P2;Temp;Humidity;BMP_temperature;BMP_pressure;BME280_temperature;BME280_humidity;BME280_pressure;Samples;Min_cycle;Max_cycle;Signal;HPM_P1;HPM_P2
2022/08/26 00:02:12;;;;;;;0.67;0.67;;;19.80;58.10;19.40;95811.00;;;;5113124;28;20540;-58
2022/08/26 00:04:38;;;;;;;0.60;0.60;;;19.80;57.40;19.40;95804.00;;;;5113158;28;20225;-59
2022/08/26 00:07:07;;;;;;;1.60;0.87;;;19.90;57.90;19.40;95806.00;;;;5113245;28;20540;-58
2022/08/26 00:09:34;;;;;;;2.27;2.10;;;19.90;58.00;19.30;95799.00;;;;5113752;28;20387;-58
2022/08/26 00:12:00;;;;;;;0.77;0.77;;;19.90;57.70;19.30;95802.00;;;;5116703;28;20289;-59
2022/08/26 00:14:30;;;;;;;0.90;0.90;;;19.80;58.00;19.30;95800.00;;;;5098648;28;20210;-59
2022/08/26 00:16:57;;;;;;;0.50;0.50;;;;;19.30;95804.00;;;;5116632;28;20253;-59
2022/08/26 00:19:24;;;;;;;0.57;0.57;;;;;19.20;95807.00;;;;5116540;28;20201;-60
2022/08/26 00:21:50;;;;;;;0.90;0.90;;;19.90;70.60;19.40;95807.00;;;;5116370;28;20249;-57
2022/08/26 00:24:19;;;;;;;1.23;1.23;;;19.80;72.00;19.30;95805.00;;;;5116476;28;20206;-56
2022/08/26 00:26:48;;;;;;;5.93;1.17;;;19.80;57.90;19.30;95804.00;;;;5116758;28;20579;-59
2022/08/26 00:29:16;;;;;;;0.63;0.63;;;;;19.00;95804.00;;;;5116419;28;20661;-57
2022/08/26 00:31:43;;;;;;;1.20;1.20;;;;;19.10;95802.00;;;;5116294;28;20209;-57
2022/08/26 00:34:10;;;;;;;6.43;2.80;;;;;19.00;95798.00;;;;5116309;28;20186;-57
2022/08/26 00:36:38;;;;;;;0.80;0.80;;;;;19.00;95800.00;;;;5116295;28;20194;-59
2022/08/26 00:39:06;;;;;;;0.30;0.30;;;;;19.00;95802.00;;;;5116430;28;20641;-57
2022/08/26 00:41:33;;;;;;;0.87;0.87;;;;;18.90;95795.00;;;;5116150;28;20209;-58
2022/08/26 00:44:00;;;;;;;1.40;1.37;;;;;18.90;95787.00;;;;5116225;28;20217;-59
2022/08/26 00:46:30;;;;;;;1.00;0.90;;;;;18.80;95792.00;;;;5116181;28;20637;-57
2022/08/26 00:49:04;;;;;;;1.00;1.00;;;;;18.70;95794.00;;;;5116149;28;20217;-59
2022/08/26 00:51:31;;;;;;;0.70;0.70;;;;;18.70;95801.00;;;;5116241;28;20205;-62
2022/08/26 00:54:04;;;;;;;0.80;0.80;;;;;18.80;95800.00;;;;5116038;28;20190;-57
2022/08/26 00:56:37;;;;;;;0.77;0.77;;;;;18.60;95803.00;;;;5116008;28;20557;-57
2022/08/26 00:59:10;;;;;;;1.00;1.00;;;;;18.60;95802.00;;;;5116006;28;20527;-59
2022/08/26 01:01:40;;;;;;;0.77;0.77;;;;;18.70;95802.00;;;;5097982;28;20244;-57
2022/08/26 01:04:08;;;;;;;2.13;1.63;;;;;18.60;95798.00;;;;5115831;28;20251;-59
2022/08/26 01:06:35;;;;;;;0.77;0.77;;;;;18.60;95804.00;;;;5115679;28;20225;-59
2022/08/26 01:09:02;;;;;;;1.13;1.13;;;;;18.60;95801.00;;;;5115638;28;20202;-57
2022/08/26 01:11:31;;;;;;;0.70;0.70;;;;;18.50;95802.00;;;;5115736;28;20342;-61
2022/08/26 01:14:02;;;;;;;0.70;0.70;;;;;18.50;95803.00;;;;5115995;28;20244;-62
2022/08/26 01:16:31;;;;;;;0.90;0.90;;;;;18.50;95810.00;;;;5115893;28;20277;-65
2022/08/26 01:19:02;;;;;;;0.80;0.80;;;;;18.40;95803.00;;;;5115864;28;20269;-59
2022/08/26 01:21:38;;;;;;;0.80;0.80;;;;;18.30;95804.00;;;;5114889;28;20305;-61
2022/08/26 01:24:06;;;;;;;0.87;0.87;;;;;18.30;95807.00;;;;5115536;28;20627;-61
2022/08/26 01:26:39;;;;;;;1.03;1.03;;;;;18.30;95803.00;;;;5116002;28;20855;-60
2022/08/26 01:29:09;;;;;;;0.60;0.60;;;;;18.40;95805.00;;;;5115578;28;20279;-58
2022/08/26 01:31:41;;;;;;;0.90;0.90;;;;;18.40;95806.00;;;;5115780;28;20190;-59
2022/08/26 01:34:14;;;;;;;1.00;0.90;;;;;18.40;95804.00;;;;5115392;28;20214;-59
2022/08/26 01:36:41;;;;;;;1.67;1.17;;;;;18.40;95802.00;;;;5115431;28;20218;-57
2022/08/26 01:39:09;;;;;;;1.07;1.07;;;;;18.40;95803.00;;;;5115188;28;20197;-57
2022/08/26 01:41:37;;;;;;;0.90;0.90;;;;;18.50;95805.00;;;;5115184;28;20528;-57
2022/08/26 01:44:06;;;;;;;0.73;0.73;;;;;18.30;95811.00;;;;5115199;28;20201;-57
2022/08/26 01:46:33;;;;;;;0.87;0.87;;;;;18.20;95807.00;;;;5115003;28;20608;-57
2022/08/26 01:49:03;;;;;;;0.90;0.90;;;;;18.20;95800.00;;;;5115081;28;20208;-57
2022/08/26 01:51:35;;;;;;;1.03;1.03;;;;;18.10;95809.00;;;;5115019;28;20597;-57
2022/08/26 01:54:03;;;;;;;0.70;0.70;;;;;18.10;95816.00;;;;5115064;28;20198;-57
2022/08/26 01:56:31;;;;;;;0.80;0.80;;;;;18.10;95812.00;;;;5114878;28;20214;-57
2022/08/26 01:59:00;;;;;;;0.80;0.80;;;;;18.00;95815.00;;;;5114952;28;20201;-57
2022/08/26 02:01:27;;;;;;;1.40;1.30;;;;;18.00;95812.00;;;;5114736;28;20721;-59
2022/08/26 02:04:04;;;;;;;0.50;0.50;;;;;18.10;95814.00;;;;5115028;28;20194;-59
2022/08/26 02:06:32;;;;;;;0.70;0.70;;;;;17.80;95805.00;;;;5114870;28;20284;-57
2022/08/26 02:09:03;;;;;;;0.93;0.93;;;;;17.80;95806.00;;;;5096838;28;20511;-57
2022/08/26 02:11:32;;;;;;;0.77;0.77;;;;;17.80;95812.00;;;;5114787;28;20364;-57
2022/08/26 02:14:02;;;;;;;1.70;1.60;;;;;17.70;95816.00;;;;5096660;28;20316;-57
2022/08/26 02:16:35;;;;;;;0.80;0.80;;;;;17.80;95814.00;;;;5114569;28;20202;-55
2022/08/26 02:19:04;;;;;;;1.30;1.20;;;;;17.80;95810.00;;;;5114787;28;20222;-57
2022/08/26 02:21:34;;;;;;;0.83;0.83;;;;;17.90;95807.00;;;;5114660;28;20283;-57
2022/08/26 02:24:09;;;;;;;0.67;0.67;;;;;17.90;95801.00;;;;5114465;28;20601;-57
2022/08/26 02:26:37;;;;;;;0.80;0.80;;;;;17.90;95812.00;;;;5114646;28;20193;-57
2022/08/26 02:29:08;;;;;;;0.97;0.97;;;;;17.80;95809.00;;;;5114528;28;20190;-60
2022/08/26 02:31:35;;;;;;;0.83;0.83;;;;;17.70;95819.00;;;;5114424;28;20202;-57
2022/08/26 02:34:11;;;;;;;0.80;0.80;;;;;17.70;95807.00;;;;5113149;28;20208;-57
2022/08/26 02:36:40;;;;;;;1.00;0.90;;;;;17.70;95810.00;;;;5114338;28;20221;-57
2022/08/26 02:39:08;;;;;;;0.90;0.90;;;;;17.80;95810.00;;;;5114265;28;20224;-57
2022/08/26 02:41:35;;;;;;;1.23;1.07;;;;;17.80;95809.00;;;;5096166;28;20342;-57
2022/08/26 02:44:05;;;;;;;1.37;1.37;;;;;17.80;95802.00;;;;5114327;28;20659;-57
2022/08/26 02:46:35;;;;;;;1.00;1.00;;;;;17.80;95805.00;;;;5096292;28;20222;-57
2022/08/26 02:49:01;;;;;;;3.40;1.70;;;;;17.80;95794.00;;;;5096361;28;20517;-57
2022/08/26 02:51:28;;;;;;;0.57;0.57;;;;;17.90;95801.00;;;;5114165;28;20262;-57
2022/08/26 02:53:55;;;;;;;0.60;0.60;;;;;17.80;95800.00;;;;5114063;28;20201;-57
2022/08/26 02:56:22;;;;;;;0.93;0.93;;;;;17.70;95809.00;;;;5114162;28;20194;-57
2022/08/26 02:58:49;;;;;;;1.13;1.07;;;;;17.60;95798.00;;;;5113930;28;20304;-57
2022/08/26 03:01:22;;;;;;;1.00;1.00;;;;;17.50;95793.00;;;;5096008;28;20221;-56
2022/08/26 03:03:48;;;;;;;0.90;0.90;;;;;17.50;95789.00;;;;5113799;28;20217;-59
2022/08/26 03:06:16;;;;;;;0.80;0.80;;;;;17.30;95794.00;;;;5113937;28;20190;-57
2022/08/26 03:08:43;;;;;;;0.70;0.70;;;;;17.20;95786.00;;;;5113896;28;20711;-57
2022/08/26 03:11:10;;;;;;;0.80;0.80;;;;;17.10;95790.00;;;;5113946;28;20244;-57
2022/08/26 03:13:37;;;;;;;1.27;1.20;;;;;17.30;95788.00;;;;5095888;28;20190;-57
2022/08/26 03:16:07;;;;;;;0.80;0.80;;;;;17.40;95788.00;;;;5113994;28;20653;-57
2022/08/26 03:18:35;;;;;;;1.07;1.07;;;;;17.30;95784.00;;;;5095893;28;20756;-57
2022/08/26 03:21:05;;;;;;;1.00;1.00;;;;;17.40;95787.00;;;;5113626;28;20232;-57
2022/08/26 03:23:32;;;;;;;1.23;1.23;;;;;17.40;95782.00;;;;5113768;28;20237;-55
2022/08/26 03:26:02;;;;;;;0.73;0.73;;;;;17.40;95784.00;;;;5113610;28;20213;-59
2022/08/26 03:28:29;;;;;;;1.07;1.07;;;;;17.20;95782.00;;;;5095690;28;20202;-57
2022/08/26 03:30:56;;;;;;;1.00;1.00;;;;;17.20;95787.00;;;;5095644;28;20209;-57
2022/08/26 03:33:23;;;;;;;1.10;1.10;;;;;17.10;95783.00;;;;5113883;28;20205;-57
2022/08/26 03:35:51;;;;;;;0.90;0.90;;;;;17.20;95783.00;;;;5113538;28;20201;-57
2022/08/26 03:38:23;;;;;;;0.80;0.80;;;;;17.00;95780.00;;;;5095823;28;20193;-57
2022/08/26 03:40:50;;;;;;;1.30;1.20;;;;;17.20;95779.00;;;;5113402;28;20511;-57
2022/08/26 03:43:18;;;;;;;1.07;1.07;;;;;17.20;95783.00;;;;5113376;28;20278;-57
2022/08/26 03:45:45;;;;;;;1.13;1.13;;;;;17.20;95781.00;;;;5115828;28;20250;-58
2022/08/26 03:48:12;;;;;;;1.00;1.00;;;;;17.10;95780.00;;;;5116980;28;20221;-58
2022/08/26 03:50:39;;;;;;;0.80;0.80;;;;;16.90;95781.00;;;;5116948;28;20200;-57
2022/08/26 03:53:08;;;;;;;4.00;1.43;;;;;16.70;95778.00;;;;5116952;28;20233;-57
2022/08/26 03:55:35;;;;;;;0.87;0.87;;;;;16.70;95784.00;;;;5116859;28;20209;-57
2022/08/26 03:58:02;;;;;;;0.67;0.67;;;;;16.60;95771.00;;;;5116919;28;20242;-57
2022/08/26 04:00:29;;;;;;;1.80;1.33;;;;;16.70;95773.00;;;;5099049;28;20222;-56
2022/08/26 04:02:56;;;;;;;0.80;0.80;;;;;16.80;95772.00;;;;5116789;28;20190;-59
2022/08/26 04:05:23;;;;;;;1.03;1.03;;;;;16.80;95777.00;;;;5116693;28;20224;-58
2022/08/26 04:07:51;;;;;;;0.87;0.87;;;;;16.80;95770.00;;;;5116690;28;20194;-58
2022/08/26 04:10:23;;;;;;;1.03;1.03;;;17.40;69.10;16.70;95776.00;;;;5116599;28;20221;-57
2022/08/26 04:12:50;;;;;;;1.10;1.10;;;17.20;69.30;16.70;95779.00;;;;5099175;28;20274;-55
2022/08/26 04:15:17;;;;;;;1.07;1.07;;;;;16.70;95779.00;;;;5116611;28;20247;-57
2022/08/26 04:17:44;;;;;;;0.97;0.97;;;17.30;69.20;16.70;95777.00;;;;5116861;28;20583;-57
2022/08/26 04:20:14;;;;;;;0.93;0.93;;;17.30;69.80;16.60;95780.00;;;;5116537;28;20193;-57
2022/08/26 04:22:43;;;;;;;0.87;0.87;;;17.20;69.40;16.50;95778.00;;;;5116654;28;20217;-58
2022/08/26 04:25:10;;;;;;;0.67;0.67;;;17.10;70.90;16.60;95779.00;;;;5116438;28;20789;-57
2022/08/26 04:27:38;;;;;;;1.47;1.37;;;17.20;70.00;16.70;95775.00;;;;5116304;28;20294;-58
2022/08/26 04:30:06;;;;;;;0.87;0.87;;;17.20;68.40;16.70;95770.00;;;;5116482;28;20334;-59
2022/08/26 04:32:32;;;;;;;1.10;1.10;;;17.20;69.30;16.50;95771.00;;;;5116524;28;20313;-60
2022/08/26 04:34:59;;;;;;;1.10;1.10;;;17.10;69.80;16.60;95769.00;;;;5116412;28;20202;-61
2022/08/26 04:37:25;;;;;;;1.27;1.17;;;17.00;69.50;16.40;95775.00;;;;5116332;28;20220;-59
2022/08/26 04:39:55;;;;;;;22.90;2.13;;;17.00;70.10;16.40;95768.00;;;;5116234;28;20202;-58
2022/08/26 04:42:21;;;;;;;1.27;1.27;;;17.10;70.40;16.60;95767.00;;;;5116150;28;20645;-58
2022/08/26 04:44:49;;;;;;;2.10;1.57;;;17.10;71.20;16.70;95769.00;;;;5116084;28;20229;-59
2022/08/26 04:47:15;;;;;;;0.80;0.80;;;17.20;69.70;16.60;95765.00;;;;5116020;28;20322;-58
2022/08/26 04:49:42;;;;;;;0.70;0.70;;;17.10;75.00;16.40;95759.00;;;;5116023;28;20662;-59
2022/08/26 04:52:09;;;;;;;0.90;0.90;;;17.00;70.50;16.40;95760.00;;;;5098002;28;20190;-58
2022/08/26 04:54:37;;;;;;;0.93;0.93;;;17.00;71.10;16.40;95767.00;;;;5115933;28;20210;-58
2022/08/26 04:57:04;;;;;;;1.80;1.70;;;17.00;71.10;16.40;95766.00;;;;5096999;28;20293;-58
2022/08/26 04:59:30;;;;;;;1.17;1.17;;;17.00;70.70;16.40;95768.00;;;;5115866;28;20206;-58
2022/08/26 05:01:59;;;;;;;1.80;1.70;;;17.10;70.10;16.50;95775.00;;;;5115869;28;20226;-58
2022/08/26 05:04:26;;;;;;;0.83;0.83;;;17.10;70.60;16.50;95775.00;;;;5115844;28;20259;-59
2022/08/26 05:06:53;;;;;;;1.23;1.20;;;17.10;70.30;16.60;95781.00;;;;5115837;28;20308;-58
2022/08/26 05:09:21;;;;;;;1.67;1.57;;;17.10;70.60;16.60;95775.00;;;;5115913;28;20263;-58
2022/08/26 05:11:48;;;;;;;5.03;2.70;;;17.10;69.60;16.60;95775.00;;;;5115687;28;20232;-58
2022/08/26 05:14:15;;;;;;;2.03;1.83;;;17.20;69.60;16.70;95781.00;;;;5115753;28;20213;-58
2022/08/26 05:16:41;;;;;;;0.60;0.60;;;17.30;69.30;16.60;95777.00;;;;5115656;28;20190;-58
2022/08/26 05:19:10;;;;;;;0.70;0.70;;;17.30;69.10;16.60;95781.00;;;;5115790;28;20202;-58
2022/08/26 05:21:39;;;;;;;1.57;1.47;;;17.10;75.40;16.60;95779.00;;;;5115508;28;20222;-58
2022/08/26 05:24:06;;;;;;;1.20;1.20;;;16.90;79.90;16.60;95779.00;;;;5115466;28;20286;-58
2022/08/26 05:26:33;;;;;;;6.70;2.00;;;17.50;85.20;16.70;95781.00;;;;5115566;28;20194;-58
2022/08/26 05:29:02;;;;;;;1.83;1.60;;;17.30;69.50;16.80;95778.00;;;;5115476;28;20225;-58
2022/08/26 05:31:31;;;;;;;1.37;1.37;;;17.20;69.60;16.70;95773.00;;;;5115609;28;20225;-58
2022/08/26 05:34:00;;;;;;;1.07;1.07;;;17.30;69.80;16.70;95771.00;;;;5115319;28;20225;-58
2022/08/26 05:36:32;;;;;;;0.70;0.70;;;17.30;69.60;16.80;95785.00;;;;5115434;28;20690;-58
2022/08/26 05:38:59;;;;;;;0.90;0.90;;;17.30;69.20;16.80;95781.00;;;;5115475;28;20494;-58
2022/08/26 05:41:30;;;;;;;1.20;1.20;;;17.40;69.60;17.00;95787.00;;;;5115422;28;20228;-60
2022/08/26 05:43:59;;;;;;;0.80;0.80;;;17.50;68.80;17.00;95787.00;;;;5115464;28;20644;-61
2022/08/26 05:46:28;;;;;;;1.03;1.03;;;17.60;68.90;17.00;95788.00;;;;5097351;28;20303;-58
2022/08/26 05:48:56;;;;;;;1.40;1.40;;;17.60;68.50;17.10;95784.00;;;;5115156;28;20235;-58
2022/08/26 05:51:24;;;;;;;0.90;0.90;;;17.60;68.30;17.10;95791.00;;;;5115018;28;20222;-58
2022/08/26 05:53:52;;;;;;;1.17;1.17;;;17.60;68.40;17.10;95791.00;;;;5114995;28;20284;-58
2022/08/26 05:56:20;;;;;;;1.73;1.63;;;17.60;68.60;17.10;95792.00;;;;5114908;28;20226;-57
2022/08/26 05:58:46;;;;;;;0.67;0.67;;;17.50;68.80;17.00;95789.00;;;;5114962;28;20197;-58
2022/08/26 06:01:18;;;;;;;1.63;1.43;;;17.50;69.70;17.00;95787.00;;;;5114951;28;20214;-58
2022/08/26 06:03:47;;;;;;;0.70;0.70;;;17.60;69.30;17.20;95792.00;;;;5115066;28;20198;-58
2022/08/26 06:06:18;;;;;;;0.73;0.73;;;17.80;68.90;17.40;95802.00;;;;5096919;28;20284;-60
2022/08/26 06:08:46;;;;;;;1.13;1.13;;;17.90;69.10;17.50;95799.00;;;;5114790;28;20221;-58
2022/08/26 06:11:18;;;;;;;1.03;1.03;;;18.10;68.30;17.60;95803.00;;;;5114987;28;20221;-59
2022/08/26 06:13:45;;;;;;;2.90;1.60;;;18.10;68.80;17.70;95801.00;;;;5114770;28;20226;-58
2022/08/26 06:16:21;;;;;;;1.50;1.40;;;18.20;68.40;17.80;95800.00;;;;5114702;28;20217;-58
2022/08/26 06:18:49;;;;;;;1.20;1.20;;;18.30;67.60;17.90;95806.00;;;;5114595;28;20229;-58
2022/08/26 06:21:19;;;;;;;0.70;0.70;;;18.40;67.50;17.90;95800.00;;;;5114647;28;20245;-58
2022/08/26 06:26:38;;;;;;;1.30;1.10;;;18.30;68.20;18.00;95783.00;;;;5114837;28;20182;-58
2022/08/26 06:29:06;;;;;;;1.53;1.20;;;18.50;68.10;18.10;95805.00;;;;5114501;28;20194;-58
2022/08/26 06:31:35;;;;;;;0.97;0.97;;;18.60;68.10;18.20;95801.00;;;;5114474;28;20281;-58
2022/08/26 06:34:05;;;;;;;0.63;0.63;;;18.70;68.00;18.20;95798.00;;;;5114580;28;20535;-58
2022/08/26 06:36:34;;;;;;;0.73;0.73;;;18.70;67.90;18.30;95804.00;;;;5114358;28;20249;-60
2022/08/26 06:39:05;;;;;;;1.10;1.10;;;18.90;69.80;18.40;95788.00;;;;5114344;28;20713;-58
2022/08/26 06:41:32;;;;;;;1.83;1.73;;;19.40;70.30;18.50;95804.00;;;;5114089;28;20276;-58
2022/08/26 06:43:59;;;;;;;0.90;0.90;;;19.00;67.20;18.60;95810.00;;;;5114124;28;20216;-60
2022/08/26 06:46:26;;;;;;;1.03;1.03;;;19.10;67.10;18.70;95808.00;;;;5114042;28;20240;-58
2022/08/26 06:48:53;;;;;;;0.90;0.90;;;19.20;66.60;18.80;95802.00;;;;5096381;28;20283;-58
2022/08/26 06:51:23;;;;;;;1.73;1.63;;;19.30;66.20;18.90;95805.00;;;;5114188;28;20198;-58
2022/08/26 06:53:52;;;;;;;0.93;0.93;;;19.40;65.60;19.00;95817.00;;;;5113978;28;20637;-58
2022/08/26 06:56:23;;;;;;;1.03;1.03;;;19.60;65.50;19.20;95790.00;;;;5114079;28;20213;-58
2022/08/26 06:58:50;;;;;;;0.77;0.77;;;19.60;66.30;19.30;95808.00;;;;5113822;28;20232;-60
2022/08/26 07:01:22;;;;;;;1.80;1.47;;;19.70;66.20;19.50;95798.00;;;;5113732;28;20214;-58
2022/08/26 07:03:51;;;;;;;1.13;1.13;;;19.80;65.60;19.70;95800.00;;;;5095663;28;20228;-58
2022/08/26 07:06:18;;;;;;;2.53;1.33;;;20.10;64.80;19.80;95803.00;;;;5113700;28;20640;-58
2022/08/26 07:08:45;;;;;;;0.90;0.90;;;20.20;64.40;19.90;95813.00;;;;5113600;28;20198;-58
2022/08/26 07:11:12;;;;;;;0.83;0.83;;;;;20.00;95810.00;;;;5113771;28;20194;-58
2022/08/26 07:13:39;;;;;;;1.20;1.20;;;20.40;62.60;20.10;95811.00;;;;5113467;28;20281;-58
2022/08/26 07:16:08;;;;;;;1.57;1.47;;;20.50;62.80;20.30;95810.00;;;;5095880;28;20676;-58
2022/08/26 07:18:37;;;;;;;0.60;0.60;;;20.70;62.10;20.50;95810.00;;;;5113622;28;20281;-58
2022/08/26 07:21:07;;;;;;;1.10;1.00;;;20.80;61.50;20.50;95811.00;;;;5119699;28;20232;-58
2022/08/26 07:23:37;;;;;;;0.70;0.70;;;;;20.70;95815.00;;;;5120515;28;20213;-58
2022/08/26 07:26:05;;;;;;;1.23;1.23;;;21.10;69.40;20.70;95817.00;;;;5120512;28;20287;-58
2022/08/26 07:28:32;;;;;;;3.80;3.07;;;21.10;60.40;20.80;95816.00;;;;5120476;28;20277;-58
2022/08/26 07:31:04;;;;;;;11.73;1.40;;;21.20;60.70;20.90;95815.00;;;;5102346;28;20644;-58
2022/08/26 07:33:33;;;;;;;0.80;0.80;;;21.30;60.90;21.00;95810.00;;;;5120342;28;20189;-59
2022/08/26 07:36:00;;;;;;;0.77;0.77;;;21.40;60.20;21.10;95807.00;;;;5120268;28;20233;-58
2022/08/26 07:38:29;;;;;;;0.70;0.70;;;21.50;59.50;21.30;95806.00;;;;5120180;28;20217;-61
2022/08/26 07:40:58;;;;;;;0.75;0.75;;;21.70;59.10;21.50;95819.00;;;;5120347;28;20198;-59
2022/08/26 07:43:25;;;;;;;0.60;0.60;;;21.80;58.30;21.60;95810.00;;;;5102156;28;20240;-58
2022/08/26 07:45:52;;;;;;;0.77;0.77;;;22.00;57.50;21.60;95802.00;;;;5120555;28;20544;-59
2022/08/26 07:48:18;;;;;;;1.90;1.23;;;22.00;57.50;21.80;95806.00;;;;5120073;28;20251;-58
2022/08/26 07:50:46;;;;;;;0.80;0.80;;;22.20;56.80;22.00;95816.00;;;;5120131;28;20210;-59
2022/08/26 07:53:16;;;;;;;6.75;1.52;;;22.30;56.80;22.30;95814.00;;;;5120029;28;20648;-59
2022/08/26 07:55:42;;;;;;;0.55;0.55;;;22.50;55.90;22.50;95806.00;;;;5120090;28;20198;-59
2022/08/26 07:58:09;;;;;;;0.90;0.82;;;22.80;54.90;22.60;95813.00;;;;5120051;28;20214;-58
2022/08/26 08:00:38;;;;;;;0.68;0.68;;;22.90;53.90;22.80;95808.00;;;;5119942;28;20278;-59
2022/08/26 08:03:05;;;;;;;0.68;0.68;;;23.10;52.80;23.00;95805.00;;;;5119785;28;20228;-60
2022/08/26 08:05:33;;;;;;;1.27;1.27;;;23.30;50.60;23.20;95805.00;;;;5119917;28;20722;-59
2022/08/26 08:08:01;;;;;;;0.93;0.88;;;23.50;51.00;23.40;95803.00;;;;5119894;28;20190;-59
2022/08/26 08:10:30;;;;;;;0.88;0.88;;;23.60;50.10;23.60;95806.00;;;;5119828;28;20248;-59
2022/08/26 08:12:59;;;;;;;0.50;0.50;;;23.80;48.70;23.90;95802.00;;;;5119860;28;20194;-58
2022/08/26 08:15:29;;;;;;;0.98;0.98;;;24.10;48.50;24.10;95800.00;;;;5119680;28;20226;-57
2022/08/26 08:17:56;;;;;;;0.73;0.73;;;;;24.20;95808.00;;;;5119745;28;20209;-59
2022/08/26 08:20:25;;;;;;;2.17;1.92;;;24.50;46.00;24.20;95803.00;;;;5101685;28;20671;-59
2022/08/26 08:22:53;;;;;;;0.77;0.77;;;;;24.70;95805.00;;;;5119638;28;20218;-59
2022/08/26 08:25:20;;;;;;;1.05;1.05;;;;;24.70;95807.00;;;;5119642;28;20649;-59
2022/08/26 08:27:49;;;;;;;1.23;1.13;;;24.90;45.00;24.80;95803.00;;;;5119613;28;20577;-59
2022/08/26 08:30:21;;;;;;;0.85;0.85;;;;;24.90;95802.00;;;;5119222;28;20190;-60
2022/08/26 08:32:48;;;;;;;1.17;1.17;;;;;25.00;95801.00;;;;5116276;28;20202;-59
2022/08/26 08:35:17;;;;;;;0.60;0.60;;;25.30;43.80;25.00;95806.00;;;;5116144;28;20194;-59
2022/08/26 08:37:44;;;;;;;0.77;0.77;;;25.40;43.80;25.10;95801.00;;;;5116244;28;20254;-59
2022/08/26 08:40:16;;;;;;;1.27;1.17;;;;;25.20;95801.00;;;;5116153;28;20200;-63
2022/08/26 08:42:48;;;;;;;0.80;0.80;;;25.50;42.50;25.60;95793.00;;;;5116039;28;20214;-59
2022/08/26 08:45:30;;;;;;;0.60;0.60;;;25.80;43.20;25.90;95799.00;;;;5116000;28;20657;-59
2022/08/26 08:47:59;;;;;;;1.05;1.00;;;26.10;41.30;26.00;95790.00;;;;5116112;28;20209;-60
2022/08/26 08:50:30;;;;;;;1.05;0.95;;;;;25.90;95802.00;;;;5115968;28;20297;-60
2022/08/26 08:53:08;;;;;;;0.82;0.82;;;;;25.90;95803.00;;;;5116030;28;20289;-60
2022/08/26 08:55:50;;;;;;;1.42;1.20;;;26.20;39.30;26.10;95799.00;;;;5116077;28;20190;-60
2022/08/26 08:58:20;;;;;;;1.33;1.33;;;26.40;39.50;26.10;95799.00;;;;5115852;28;20213;-59
2022/08/26 09:00:56;;;;;;;0.80;0.80;;;26.30;39.90;26.30;95798.00;;;;5115862;28;20222;-59
2022/08/26 09:03:41;;;;;;;0.93;0.93;;;26.60;39.50;26.60;95797.00;;;;5115803;28;20687;-61
2022/08/26 09:06:15;;;;;;;0.82;0.82;;;26.80;39.20;26.80;95790.00;;;;5115813;28;20206;-61
2022/08/26 09:08:46;;;;;;;1.65;1.55;;;27.00;38.30;26.70;95767.00;;;;5115776;28;20216;-59
2022/08/26 09:11:15;;;;;;;0.90;0.90;;;27.00;37.90;26.50;95798.00;;;;5115659;28;20194;-59
2022/08/26 09:13:48;;;;;;;1.35;1.27;;;26.90;37.60;26.70;95795.00;;;;5115665;28;20273;-59
2022/08/26 09:16:23;;;;;;;1.90;1.67;;;27.00;38.00;26.80;95788.00;;;;5115684;28;20218;-60
2022/08/26 09:19:14;;;;;;;0.85;0.85;;;27.10;37.30;26.90;95789.00;;;;5115666;28;20707;-60
2022/08/26 09:21:41;;;;;;;2.72;1.55;;;27.20;37.40;27.10;95787.00;;;;5115572;28;20214;-61
2022/08/26 09:24:08;;;;;;;1.23;1.15;;;27.30;36.70;26.90;95790.00;;;;5115673;28;20198;-58
2022/08/26 09:26:46;;;;;;;1.48;1.38;;;27.20;37.00;26.80;95785.00;;;;5115419;28;20221;-58
2022/08/26 09:29:23;;;;;;;1.38;1.38;;;27.20;37.00;27.00;95777.00;;;;5115494;28;20237;-60
2022/08/26 09:31:52;;;;;;;2.95;1.83;;;27.30;36.80;27.20;95774.00;;;;5115397;28;20197;-59
2022/08/26 09:34:23;;;;;;;1.05;1.05;;;27.40;36.80;27.40;95776.00;;;;5097325;28;20202;-59
2022/08/26 09:36:52;;;;;;;0.90;0.90;;;27.60;36.90;27.70;95770.00;;;;5115322;28;20240;-59
2022/08/26 09:39:32;;;;;;;0.93;0.93;;;27.80;35.50;27.90;95778.00;;;;5115145;28;20633;-59
2022/08/26 09:42:08;;;;;;;1.25;1.25;;;28.10;34.80;28.20;95770.00;;;;5114630;28;20620;-59
2022/08/26 09:44:56;;;;;;;1.42;1.35;;;28.40;34.30;28.50;95775.00;;;;5115269;28;20166;-60
2022/08/26 09:47:29;;;;;;;0.65;0.65;;;28.60;33.50;28.60;95767.00;;;;5097448;28;20325;-61
2022/08/26 09:50:04;;;;;;;0.82;0.82;;;28.80;42.10;28.70;95770.00;;;;5115308;28;20269;-65
2022/08/26 09:52:31;;;;;;;0.65;0.65;;;;;28.70;95765.00;;;;5115237;28;20209;-63
2022/08/26 09:55:05;;;;;;;1.38;1.35;;;28.90;35.50;28.70;95763.00;;;;5114941;28;20663;-59
2022/08/26 09:57:34;;;;;;;1.35;1.35;;;28.90;32.00;28.80;95767.00;;;;5115003;28;20578;-59
2022/08/26 10:00:22;;;;;;;1.00;1.00;;;29.00;32.10;28.90;95761.00;;;;5114859;28;20249;-59
2022/08/26 10:02:49;;;;;;;0.98;0.98;;;29.20;31.80;28.60;95763.00;;;;5096802;28;20222;-59
2022/08/26 10:05:28;;;;;;;0.80;0.80;;;28.90;31.50;28.40;95756.00;;;;5114725;28;20304;-58
2022/08/26 10:07:59;;;;;;;0.80;0.80;;;28.80;31.80;28.10;95757.00;;;;5096594;28;20316;-60
2022/08/26 10:10:32;;;;;;;0.63;0.63;;;28.60;32.00;28.00;95733.00;;;;5114640;28;20198;-59
2022/08/26 10:13:11;;;;;;;0.60;0.60;;;28.40;32.40;27.90;95754.00;;;;5114511;28;20230;-59
2022/08/26 10:15:46;;;;;;;1.20;1.20;;;28.20;32.70;27.80;95751.00;;;;5114689;28;20198;-58
2022/08/26 10:18:23;;;;;;;0.80;0.80;;;28.20;32.90;27.70;95743.00;;;;5114562;28;20198;-59
2022/08/26 10:21:01;;;;;;;1.42;1.38;;;28.00;33.80;28.00;95738.00;;;;5114635;28;20221;-58
2022/08/26 10:23:31;;;;;;;1.30;1.23;;;;;28.40;95729.00;;;;5114494;28;20198;-57
2022/08/26 10:26:06;;;;;;;2.45;2.35;;;28.50;31.90;28.80;95726.00;;;;5114377;28;20206;-57
2022/08/26 10:28:42;;;;;;;1.52;1.30;;;28.80;31.90;29.40;95703.00;;;;5096472;28;20307;-57
2022/08/26 10:31:27;;;;;;;0.93;0.93;;;;;29.70;95725.00;;;;5114395;28;20624;-58
2022/08/26 10:33:55;;;;;;;1.73;1.63;;;29.70;28.80;29.80;95721.00;;;;5114143;28;20558;-57
2022/08/26 10:39:20;;;;;;;1.17;1.10;;;30.00;29.10;30.10;95714.00;;;;5114151;28;20197;-58
2022/08/26 10:41:52;;;;;;;1.42;1.33;;;30.20;28.60;30.20;95724.00;;;;5114243;28;20312;-57
2022/08/26 10:44:20;;;;;;;1.45;1.20;;;30.30;28.80;30.20;95718.00;;;;5114234;28;20289;-58
2022/08/26 10:47:00;;;;;;;1.10;1.10;;;30.40;28.70;30.00;95728.00;;;;5114093;28;20301;-57
2022/08/26 10:49:27;;;;;;;0.75;0.75;;;30.30;27.70;29.70;95746.00;;;;5096219;28;20296;-58
2022/08/26 10:52:03;;;;;;;0.57;0.57;;;30.10;28.60;29.00;95733.00;;;;5114159;28;20287;-58
2022/08/26 10:54:39;;;;;;;1.45;1.35;;;29.40;29.70;28.90;95730.00;;;;5113024;28;20668;-59
2022/08/26 10:57:16;;;;;;;1.25;1.20;;;29.30;30.70;28.90;95728.00;;;;5096542;28;20517;-58
2022/08/26 10:59:56;;;;;;;0.60;0.60;;;29.20;31.20;28.50;95709.00;;;;5096013;28;20228;-59
2022/08/26 11:02:36;;;;;;;0.98;0.98;;;29.00;30.60;28.60;95725.00;;;;5113923;28;20634;-59
2022/08/26 11:05:21;;;;;;;0.90;0.90;;;28.90;30.50;28.40;95734.00;;;;5113945;28;20641;-59
2022/08/26 11:07:53;;;;;;;2.17;1.02;;;28.70;31.10;28.50;95733.00;;;;5113963;28;20253;-58
2022/08/26 11:11:02;;;;;;;1.00;1.00;;;28.70;30.70;28.10;95727.00;;;;5113851;28;20628;-59
2022/08/26 11:14:00;;;;;;;1.98;1.58;;;28.60;31.30;28.20;95718.00;;;;5113948;28;20300;-57
2022/08/26 11:16:40;;;;;;;1.55;1.15;;;28.50;31.90;27.90;95710.00;;;;5114022;28;20243;-58
2022/08/26 11:19:10;;;;;;;1.15;1.05;;;28.30;32.60;27.80;95722.00;;;;5096090;28;20590;-57
2022/08/26 11:22:04;;;;;;;0.98;0.98;;;28.20;32.40;27.70;95720.00;;;;5113641;28;20694;-58
2022/08/26 11:24:59;;;;;;;4.13;1.25;;;28.10;32.60;27.60;95732.00;;;;5113825;28;20212;-58
2022/08/26 11:28:03;;;;;;;2.22;1.13;;;28.00;32.40;27.50;95732.00;;;;5095683;28;20644;-58
2022/08/26 11:30:50;;;;;;;1.48;1.38;;;27.90;32.50;27.60;95734.00;;;;5113602;28;20217;-58
2022/08/26 11:33:57;;;;;;;0.60;0.60;;;27.90;32.60;27.40;95722.00;;;;5095879;28;20327;-58
2022/08/26 11:36:57;;;;;;;1.00;1.00;;;27.80;33.40;27.30;95724.00;;;;5113698;28;20276;-57
2022/08/26 11:39:46;;;;;;;0.90;0.90;;;27.70;33.70;27.30;95719.00;;;;5095602;28;20722;-58
2022/08/26 11:42:27;;;;;;;1.10;1.10;;;27.70;33.90;27.30;95720.00;;;;5113377;28;20225;-58
2022/08/26 11:44:56;;;;;;;1.02;1.02;;;27.60;33.90;27.20;95720.00;;;;5113447;28;20194;-57
2022/08/26 11:47:29;;;;;;;1.30;1.25;;;27.50;33.80;27.10;95717.00;;;;5095396;28;20641;-58